sensor_id;sensor_type;location;lat;lon;timestamp;P1;durP1;ratioP1;P2;durP2;ratioP2
4650;SDS011;2338;49.602;8.722;2022-12-18T00:02:42;70.22;;;45.33;;
4650;SDS011;2338;49.602;8.722;2022-12-18T00:05:28;71.72;;;46.90;;
4650;SDS011;2338;49.602;8.722;2022-12-18T00:08:14;68.95;;;47.97;;
4650;SDS011;2338;49.602;8.722;2022-12-18T00:11:02;88.18;;;49.10;;
4650;SDS011;2338;49.602;8.722;2022-12-18T00:13:50;70.97;;;47.53;;
4650;SDS011;2338;49.602;8.722;2022-12-18T00:16:36;71.95;;;47.08;;
4650;SDS011;2338;49.602;8.722;2022-12-18T00:19:22;66.80;;;45.33;;
4650;SDS011;2338;49.602;8.722;2022-12-18T00:22:08;69.82;;;44.50;;
4650;SDS011;2338;49.602;8.722;2022-12-18T00:24:53;85.35;;;47.30;;
4650;SDS011;2338;49.602;8.722;2022-12-18T00:27:39;74.28;;;46.45;;
4650;SDS011;2338;49.602;8.722;2022-12-18T00:30:26;79.53;;;47.47;;
4650;SDS011;2338;49.602;8.722;2022-12-18T00:33:12;71.85;;;46.38;;
4650;SDS011;2338;49.602;8.722;2022-12-18T00:36:00;70.82;;;45.50;;
4650;SDS011;2338;49.602;8.722;2022-12-18T00:38:45;71.07;;;44.72;;
4650;SDS011;2338;49.602;8.722;2022-12-18T00:41:32;76.25;;;45.50;;
4650;SDS011;2338;49.602;8.722;2022-12-18T00:44:36;66.55;;;43.25;;
4650;SDS011;2338;49.602;8.722;2022-12-18T00:47:23;67.90;;;44.35;;
4650;SDS011;2338;49.602;8.722;2022-12-18T00:50:09;65.03;;;42.22;;
4650;SDS011;2338;49.602;8.722;2022-12-18T00:52:55;74.18;;;46.47;;
4650;SDS011;2338;49.602;8.722;2022-12-18T00:55:40;57.97;;;41.15;;
4650;SDS011;2338;49.602;8.722;2022-12-18T00:58:26;68.32;;;43.78;;
4650;SDS011;2338;49.602;8.722;2022-12-18T01:01:12;74.82;;;45.88;;
4650;SDS011;2338;49.602;8.722;2022-12-18T01:04:00;67.55;;;44.95;;
4650;SDS011;2338;49.602;8.722;2022-12-18T01:06:46;65.05;;;43.40;;
4650;SDS011;2338;49.602;8.722;2022-12-18T01:09:32;70.60;;;43.80;;
4650;SDS011;2338;49.602;8.722;2022-12-18T01:12:18;80.63;;;48.15;;
4650;SDS011;2338;49.602;8.722;2022-12-18T01:15:04;75.22;;;46.13;;
4650;SDS011;2338;49.602;8.722;2022-12-18T01:17:51;77.55;;;47.75;;
4650;SDS011;2338;49.602;8.722;2022-12-18T01:20:38;72.20;;;45.47;;
4650;SDS011;2338;49.602;8.722;2022-12-18T01:23:24;73.68;;;45.20;;
4650;SDS011;2338;49.602;8.722;2022-12-18T01:26:13;76.57;;;46.17;;
4650;SDS011;2338;49.602;8.722;2022-12-18T01:28:59;75.03;;;46.80;;
4650;SDS011;2338;49.602;8.722;2022-12-18T01:31:45;70.20;;;47.33;;
4650;SDS011;2338;49.602;8.722;2022-12-18T01:34:31;70.22;;;45.53;;
4650;SDS011;2338;49.602;8.722;2022-12-18T01:37:18;70.82;;;45.55;;
4650;SDS011;2338;49.602;8.722;2022-12-18T01:40:04;72.40;;;46.15;;
4650;SDS011;2338;49.602;8.722;2022-12-18T01:42:50;73.38;;;44.90;;
4650;SDS011;2338;49.602;8.722;2022-12-18T01:45:36;81.70;;;47.45;;
4650;SDS011;2338;49.602;8.722;2022-12-18T01:48:22;65.18;;;42.05;;
4650;SDS011;2338;49.602;8.722;2022-12-18T01:51:09;74.68;;;46.05;;
4650;SDS011;2338;49.602;8.722;2022-12-18T01:53:56;62.50;;;42.90;;
4650;SDS011;2338;49.602;8.722;2022-12-18T01:56:43;71.88;;;43.97;;
4650;SDS011;2338;49.602;8.722;2022-12-18T01:59:30;76.63;;;45.00;;
4650;SDS011;2338;49.602;8.722;2022-12-18T02:02:17;75.15;;;44.08;;
4650;SDS011;2338;49.602;8.722;2022-12-18T02:05:03;70.63;;;45.95;;
4650;SDS011;2338;49.602;8.722;2022-12-18T02:07:53;67.28;;;43.90;;
4650;SDS011;2338;49.602;8.722;2022-12-18T02:10:48;71.68;;;44.70;;
4650;SDS011;2338;49.602;8.722;2022-12-18T02:13:43;63.53;;;42.53;;
4650;SDS011;2338;49.602;8.722;2022-12-18T02:16:39;68.88;;;45.53;;
4650;SDS011;2338;49.602;8.722;2022-12-18T02:22:41;67.47;;;42.72;;
4650;SDS011;2338;49.602;8.722;2022-12-18T02:25:40;69.50;;;43.17;;
4650;SDS011;2338;49.602;8.722;2022-12-18T02:28:55;75.22;;;43.88;;
4650;SDS011;2338;49.602;8.722;2022-12-18T02:31:45;74.35;;;43.13;;
4650;SDS011;2338;49.602;8.722;2022-12-18T02:34:39;65.75;;;40.35;;
4650;SDS011;2338;49.602;8.722;2022-12-18T02:37:25;70.45;;;42.80;;
4650;SDS011;2338;49.602;8.722;2022-12-18T02:40:13;73.10;;;42.17;;
4650;SDS011;2338;49.602;8.722;2022-12-18T02:43:06;66.38;;;41.30;;
4650;SDS011;2338;49.602;8.722;2022-12-18T02:45:55;69.80;;;42.28;;
4650;SDS011;2338;49.602;8.722;2022-12-18T02:48:42;72.55;;;43.15;;
4650;SDS011;2338;49.602;8.722;2022-12-18T02:51:29;65.97;;;42.67;;
4650;SDS011;2338;49.602;8.722;2022-12-18T02:54:26;68.63;;;41.78;;
4650;SDS011;2338;49.602;8.722;2022-12-18T02:57:23;66.45;;;42.72;;
4650;SDS011;2338;49.602;8.722;2022-12-18T03:00:15;67.55;;;43.97;;
4650;SDS011;2338;49.602;8.722;2022-12-18T03:03:06;75.25;;;44.45;;
4650;SDS011;2338;49.602;8.722;2022-12-18T03:06:00;70.15;;;44.45;;
4650;SDS011;2338;49.602;8.722;2022-12-18T03:08:51;71.80;;;44.15;;
4650;SDS011;2338;49.602;8.722;2022-12-18T03:11:41;64.80;;;41.45;;
4650;SDS011;2338;49.602;8.722;2022-12-18T03:14:49;70.88;;;40.92;;
4650;SDS011;2338;49.602;8.722;2022-12-18T03:17:40;68.15;;;42.35;;
4650;SDS011;2338;49.602;8.722;2022-12-18T03:20:31;65.70;;;41.47;;
4650;SDS011;2338;49.602;8.722;2022-12-18T03:23:20;65.53;;;40.97;;
4650;SDS011;2338;49.602;8.722;2022-12-18T03:26:10;76.53;;;44.97;;
4650;SDS011;2338;49.602;8.722;2022-12-18T03:28:59;68.50;;;44.60;;
4650;SDS011;2338;49.602;8.722;2022-12-18T03:31:49;77.72;;;48.67;;
4650;SDS011;2338;49.602;8.722;2022-12-18T03:34:39;75.45;;;46.17;;
4650;SDS011;2338;49.602;8.722;2022-12-18T03:37:32;73.82;;;46.13;;
4650;SDS011;2338;49.602;8.722;2022-12-18T03:40:18;74.57;;;46.08;;
4650;SDS011;2338;49.602;8.722;2022-12-18T03:43:08;71.35;;;43.00;;
4650;SDS011;2338;49.602;8.722;2022-12-18T03:46:02;65.55;;;44.28;;
4650;SDS011;2338;49.602;8.722;2022-12-18T03:48:55;83.95;;;49.20;;
4650;SDS011;2338;49.602;8.722;2022-12-18T03:51:45;77.07;;;45.13;;
4650;SDS011;2338;49.602;8.722;2022-12-18T03:54:37;75.45;;;46.05;;
4650;SDS011;2338;49.602;8.722;2022-12-18T03:57:26;73.07;;;46.72;;
4650;SDS011;2338;49.602;8.722;2022-12-18T04:00:14;76.18;;;45.90;;
4650;SDS011;2338;49.602;8.722;2022-12-18T04:03:02;78.63;;;44.65;;
4650;SDS011;2338;49.602;8.722;2022-12-18T04:05:51;70.53;;;42.80;;
4650;SDS011;2338;49.602;8.722;2022-12-18T04:08:37;72.93;;;45.30;;
4650;SDS011;2338;49.602;8.722;2022-12-18T04:11:25;74.72;;;42.88;;
4650;SDS011;2338;49.602;8.722;2022-12-18T04:14:11;67.88;;;41.78;;
4650;SDS011;2338;49.602;8.722;2022-12-18T04:16:57;65.65;;;39.67;;
4650;SDS011;2338;49.602;8.722;2022-12-18T04:19:43;64.07;;;40.17;;
4650;SDS011;2338;49.602;8.722;2022-12-18T04:22:29;63.92;;;41.05;;
4650;SDS011;2338;49.602;8.722;2022-12-18T04:25:15;62.45;;;39.75;;
4650;SDS011;2338;49.602;8.722;2022-12-18T04:28:02;61.70;;;40.30;;
4650;SDS011;2338;49.602;8.722;2022-12-18T04:30:47;75.32;;;45.97;;
4650;SDS011;2338;49.602;8.722;2022-12-18T04:33:33;62.17;;;41.47;;
4650;SDS011;2338;49.602;8.722;2022-12-18T04:36:18;68.78;;;41.97;;
4650;SDS011;2338;49.602;8.722;2022-12-18T04:39:05;61.40;;;40.95;;
4650;SDS011;2338;49.602;8.722;2022-12-18T04:41:51;76.25;;;42.10;;
4650;SDS011;2338;49.602;8.722;2022-12-18T04:44:37;79.13;;;45.47;;
4650;SDS011;2338;49.602;8.722;2022-12-18T04:47:23;68.68;;;44.95;;
4650;SDS011;2338;49.602;8.722;2022-12-18T04:50:09;68.47;;;43.83;;
4650;SDS011;2338;49.602;8.722;2022-12-18T04:52:54;65.68;;;41.47;;
4650;SDS011;2338;49.602;8.722;2022-12-18T04:55:41;66.82;;;42.17;;
4650;SDS011;2338;49.602;8.722;2022-12-18T04:58:27;66.55;;;41.70;;
4650;SDS011;2338;49.602;8.722;2022-12-18T05:01:14;59.08;;;38.70;;
4650;SDS011;2338;49.602;8.722;2022-12-18T05:04:01;66.50;;;39.92;;
4650;SDS011;2338;49.602;8.722;2022-12-18T05:06:48;65.93;;;38.53;;
4650;SDS011;2338;49.602;8.722;2022-12-18T05:09:33;64.63;;;41.22;;
4650;SDS011;2338;49.602;8.722;2022-12-18T05:12:19;66.35;;;43.22;;
4650;SDS011;2338;49.602;8.722;2022-12-18T05:15:09;60.00;;;37.30;;
4650;SDS011;2338;49.602;8.722;2022-12-18T05:17:56;64.25;;;41.97;;
4650;SDS011;2338;49.602;8.722;2022-12-18T05:20:42;63.20;;;39.72;;
4650;SDS011;2338;49.602;8.722;2022-12-18T05:23:28;59.60;;;38.80;;
4650;SDS011;2338;49.602;8.722;2022-12-18T05:26:14;63.30;;;39.05;;
4650;SDS011;2338;49.602;8.722;2022-12-18T05:29:01;55.13;;;36.03;;
4650;SDS011;2338;49.602;8.722;2022-12-18T05:31:47;58.45;;;37.40;;
4650;SDS011;2338;49.602;8.722;2022-12-18T05:34:34;59.28;;;35.92;;
4650;SDS011;2338;49.602;8.722;2022-12-18T05:37:20;63.53;;;38.90;;
4650;SDS011;2338;49.602;8.722;2022-12-18T05:40:06;64.70;;;35.53;;
4650;SDS011;2338;49.602;8.722;2022-12-18T05:42:53;60.92;;;38.10;;
4650;SDS011;2338;49.602;8.722;2022-12-18T05:45:39;61.30;;;39.00;;
4650;SDS011;2338;49.602;8.722;2022-12-18T05:48:25;72.97;;;40.25;;
4650;SDS011;2338;49.602;8.722;2022-12-18T05:51:13;59.42;;;39.00;;
4650;SDS011;2338;49.602;8.722;2022-12-18T05:54:00;56.42;;;36.65;;
4650;SDS011;2338;49.602;8.722;2022-12-18T05:56:46;48.50;;;34.25;;
4650;SDS011;2338;49.602;8.722;2022-12-18T05:59:31;62.50;;;37.67;;
4650;SDS011;2338;49.602;8.722;2022-12-18T06:02:17;61.42;;;38.05;;
4650;SDS011;2338;49.602;8.722;2022-12-18T06:05:05;66.88;;;35.70;;
4650;SDS011;2338;49.602;8.722;2022-12-18T06:07:52;56.05;;;34.88;;
4650;SDS011;2338;49.602;8.722;2022-12-18T06:10:38;58.30;;;35.83;;
4650;SDS011;2338;49.602;8.722;2022-12-18T06:13:24;66.05;;;39.38;;
4650;SDS011;2338;49.602;8.722;2022-12-18T06:16:10;60.35;;;36.55;;
4650;SDS011;2338;49.602;8.722;2022-12-18T06:18:56;65.45;;;38.55;;
4650;SDS011;2338;49.602;8.722;2022-12-18T06:21:42;53.25;;;36.40;;
4650;SDS011;2338;49.602;8.722;2022-12-18T06:24:29;62.80;;;36.78;;
4650;SDS011;2338;49.602;8.722;2022-12-18T06:27:14;57.88;;;36.85;;
4650;SDS011;2338;49.602;8.722;2022-12-18T06:30:00;55.67;;;35.35;;
4650;SDS011;2338;49.602;8.722;2022-12-18T06:32:47;58.05;;;37.63;;
4650;SDS011;2338;49.602;8.722;2022-12-18T06:35:33;59.83;;;36.75;;
4650;SDS011;2338;49.602;8.722;2022-12-18T06:38:19;54.85;;;36.00;;
4650;SDS011;2338;49.602;8.722;2022-12-18T06:41:07;58.80;;;37.20;;
4650;SDS011;2338;49.602;8.722;2022-12-18T06:43:53;58.70;;;36.88;;
4650;SDS011;2338;49.602;8.722;2022-12-18T06:46:39;53.90;;;35.78;;
4650;SDS011;2338;49.602;8.722;2022-12-18T06:49:24;57.67;;;35.53;;
4650;SDS011;2338;49.602;8.722;2022-12-18T06:52:10;58.97;;;36.17;;
4650;SDS011;2338;49.602;8.722;2022-12-18T06:54:56;56.47;;;35.15;;
4650;SDS011;2338;49.602;8.722;2022-12-18T06:57:43;62.65;;;36.05;;
4650;SDS011;2338;49.602;8.722;2022-12-18T07:00:28;63.00;;;35.55;;
4650;SDS011;2338;49.602;8.722;2022-12-18T07:03:14;64.00;;;38.53;;
4650;SDS011;2338;49.602;8.722;2022-12-18T07:06:00;56.47;;;33.47;;
4650;SDS011;2338;49.602;8.722;2022-12-18T07:08:45;52.38;;;33.53;;
4650;SDS011;2338;49.602;8.722;2022-12-18T07:11:32;59.08;;;36.88;;
4650;SDS011;2338;49.602;8.722;2022-12-18T07:14:19;53.17;;;34.80;;
4650;SDS011;2338;49.602;8.722;2022-12-18T07:17:04;57.83;;;35.55;;
4650;SDS011;2338;49.602;8.722;2022-12-18T07:19:50;64.03;;;35.67;;
4650;SDS011;2338;49.602;8.722;2022-12-18T07:22:36;57.75;;;34.80;;
4650;SDS011;2338;49.602;8.722;2022-12-18T07:25:22;56.67;;;33.85;;
4650;SDS011;2338;49.602;8.722;2022-12-18T07:28:07;57.78;;;34.78;;
4650;SDS011;2338;49.602;8.722;2022-12-18T07:30:55;56.85;;;35.63;;
4650;SDS011;2338;49.602;8.722;2022-12-18T07:33:40;58.22;;;34.28;;
4650;SDS011;2338;49.602;8.722;2022-12-18T07:36:26;63.47;;;37.15;;
4650;SDS011;2338;49.602;8.722;2022-12-18T07:39:12;53.45;;;34.53;;
4650;SDS011;2338;49.602;8.722;2022-12-18T07:41:59;67.70;;;38.50;;
4650;SDS011;2338;49.602;8.722;2022-12-18T07:45:02;63.10;;;38.75;;
4650;SDS011;2338;49.602;8.722;2022-12-18T07:47:50;69.40;;;40.53;;
4650;SDS011;2338;49.602;8.722;2022-12-18T07:50:36;69.57;;;42.20;;
4650;SDS011;2338;49.602;8.722;2022-12-18T07:53:21;60.08;;;39.13;;
4650;SDS011;2338;49.602;8.722;2022-12-18T07:56:08;74.13;;;44.75;;
4650;SDS011;2338;49.602;8.722;2022-12-18T07:58:54;81.90;;;47.33;;
4650;SDS011;2338;49.602;8.722;2022-12-18T08:01:40;83.72;;;46.95;;
4650;SDS011;2338;49.602;8.722;2022-12-18T08:04:27;95.15;;;52.38;;
4650;SDS011;2338;49.602;8.722;2022-12-18T08:07:13;88.90;;;48.17;;
4650;SDS011;2338;49.602;8.722;2022-12-18T08:09:59;75.72;;;43.55;;
4650;SDS011;2338;49.602;8.722;2022-12-18T08:12:44;66.00;;;40.65;;
4650;SDS011;2338;49.602;8.722;2022-12-18T08:15:30;64.90;;;38.70;;
4650;SDS011;2338;49.602;8.722;2022-12-18T08:18:16;59.45;;;37.95;;
4650;SDS011;2338;49.602;8.722;2022-12-18T08:21:10;56.45;;;36.20;;
4650;SDS011;2338;49.602;8.722;2022-12-18T08:23:57;56.70;;;35.65;;
4650;SDS011;2338;49.602;8.722;2022-12-18T08:26:44;54.45;;;35.50;;
4650;SDS011;2338;49.602;8.722;2022-12-18T08:29:30;57.30;;;34.92;;
4650;SDS011;2338;49.602;8.722;2022-12-18T08:32:17;56.55;;;35.72;;
4650;SDS011;2338;49.602;8.722;2022-12-18T08:35:03;55.17;;;36.20;;
4650;SDS011;2338;49.602;8.722;2022-12-18T08:37:51;69.53;;;40.92;;
4650;SDS011;2338;49.602;8.722;2022-12-18T08:40:36;65.72;;;41.05;;
4650;SDS011;2338;49.602;8.722;2022-12-18T08:43:22;61.40;;;39.33;;
4650;SDS011;2338;49.602;8.722;2022-12-18T08:46:26;72.32;;;41.85;;
4650;SDS011;2338;49.602;8.722;2022-12-18T08:49:15;68.28;;;43.30;;
4650;SDS011;2338;49.602;8.722;2022-12-18T08:52:01;72.22;;;41.60;;
4650;SDS011;2338;49.602;8.722;2022-12-18T08:54:48;80.53;;;49.08;;
4650;SDS011;2338;49.602;8.722;2022-12-18T08:57:34;81.10;;;44.95;;
4650;SDS011;2338;49.602;8.722;2022-12-18T09:00:20;72.78;;;45.20;;
4650;SDS011;2338;49.602;8.722;2022-12-18T09:03:09;74.55;;;44.22;;
4650;SDS011;2338;49.602;8.722;2022-12-18T09:05:56;75.25;;;45.08;;
4650;SDS011;2338;49.602;8.722;2022-12-18T09:08:42;67.68;;;42.08;;
4650;SDS011;2338;49.602;8.722;2022-12-18T09:11:28;64.60;;;38.75;;
4650;SDS011;2338;49.602;8.722;2022-12-18T09:14:14;69.97;;;42.15;;
4650;SDS011;2338;49.602;8.722;2022-12-18T09:17:00;66.50;;;42.33;;
4650;SDS011;2338;49.602;8.722;2022-12-18T09:19:45;66.95;;;41.92;;
4650;SDS011;2338;49.602;8.722;2022-12-18T09:22:31;69.55;;;41.42;;
4650;SDS011;2338;49.602;8.722;2022-12-18T09:25:17;68.40;;;44.15;;
4650;SDS011;2338;49.602;8.722;2022-12-18T09:28:05;73.05;;;43.85;;
4650;SDS011;2338;49.602;8.722;2022-12-18T09:30:54;75.28;;;45.28;;
4650;SDS011;2338;49.602;8.722;2022-12-18T09:33:39;72.93;;;44.47;;
4650;SDS011;2338;49.602;8.722;2022-12-18T09:36:25;84.13;;;50.58;;
4650;SDS011;2338;49.602;8.722;2022-12-18T09:39:10;78.70;;;46.60;;
4650;SDS011;2338;49.602;8.722;2022-12-18T09:41:57;85.80;;;47.35;;
4650;SDS011;2338;49.602;8.722;2022-12-18T09:44:44;81.75;;;47.53;;
4650;SDS011;2338;49.602;8.722;2022-12-18T09:47:35;78.57;;;46.83;;
4650;SDS011;2338;49.602;8.722;2022-12-18T09:50:24;76.47;;;46.33;;
4650;SDS011;2338;49.602;8.722;2022-12-18T09:53:14;73.30;;;46.25;;
4650;SDS011;2338;49.602;8.722;2022-12-18T09:56:04;75.88;;;45.60;;
4650;SDS011;2338;49.602;8.722;2022-12-18T09:58:53;85.13;;;46.30;;
4650;SDS011;2338;49.602;8.722;2022-12-18T10:01:44;66.68;;;41.63;;
4650;SDS011;2338;49.602;8.722;2022-12-18T10:04:30;67.90;;;41.05;;
4650;SDS011;2338;49.602;8.722;2022-12-18T10:07:18;71.43;;;43.35;;
4650;SDS011;2338;49.602;8.722;2022-12-18T10:10:10;70.72;;;41.15;;
4650;SDS011;2338;49.602;8.722;2022-12-18T10:13:06;72.75;;;43.30;;
4650;SDS011;2338;49.602;8.722;2022-12-18T10:16:08;70.60;;;40.83;;
4650;SDS011;2338;49.602;8.722;2022-12-18T10:19:04;69.53;;;41.33;;
4650;SDS011;2338;49.602;8.722;2022-12-18T10:22:10;67.22;;;40.35;;
4650;SDS011;2338;49.602;8.722;2022-12-18T10:25:03;63.92;;;37.88;;
4650;SDS011;2338;49.602;8.722;2022-12-18T10:28:06;68.65;;;39.38;;
4650;SDS011;2338;49.602;8.722;2022-12-18T10:30:55;64.70;;;35.97;;
4650;SDS011;2338;49.602;8.722;2022-12-18T10:33:41;58.00;;;35.60;;
4650;SDS011;2338;49.602;8.722;2022-12-18T10:36:28;57.13;;;33.35;;
4650;SDS011;2338;49.602;8.722;2022-12-18T10:39:14;54.05;;;30.83;;
4650;SDS011;2338;49.602;8.722;2022-12-18T10:42:09;57.42;;;30.65;;
4650;SDS011;2338;49.602;8.722;2022-12-18T10:45:01;56.28;;;31.52;;
4650;SDS011;2338;49.602;8.722;2022-12-18T10:47:50;59.25;;;32.13;;
4650;SDS011;2338;49.602;8.722;2022-12-18T10:50:36;53.47;;;29.75;;
4650;SDS011;2338;49.602;8.722;2022-12-18T10:53:24;53.42;;;30.85;;
4650;SDS011;2338;49.602;8.722;2022-12-18T10:56:11;53.33;;;30.90;;
4650;SDS011;2338;49.602;8.722;2022-12-18T10:58:58;52.70;;;31.33;;
4650;SDS011;2338;49.602;8.722;2022-12-18T11:01:46;53.00;;;30.77;;
4650;SDS011;2338;49.602;8.722;2022-12-18T11:04:33;51.17;;;30.67;;
4650;SDS011;2338;49.602;8.722;2022-12-18T11:07:19;45.45;;;26.63;;
4650;SDS011;2338;49.602;8.722;2022-12-18T11:10:14;52.30;;;29.95;;
4650;SDS011;2338;49.602;8.722;2022-12-18T11:13:16;53.95;;;31.77;;
4650;SDS011;2338;49.602;8.722;2022-12-18T11:16:03;47.90;;;28.20;;
4650;SDS011;2338;49.602;8.722;2022-12-18T11:18:49;53.45;;;29.65;;
4650;SDS011;2338;49.602;8.722;2022-12-18T11:21:38;58.45;;;30.70;;
4650;SDS011;2338;49.602;8.722;2022-12-18T11:24:27;50.00;;;27.75;;
4650;SDS011;2338;49.602;8.722;2022-12-18T11:27:17;47.83;;;27.65;;
4650;SDS011;2338;49.602;8.722;2022-12-18T11:30:07;52.10;;;28.02;;
4650;SDS011;2338;49.602;8.722;2022-12-18T11:32:55;49.05;;;27.10;;
4650;SDS011;2338;49.602;8.722;2022-12-18T11:35:45;51.97;;;26.88;;
4650;SDS011;2338;49.602;8.722;2022-12-18T11:38:35;50.20;;;26.40;;
4650;SDS011;2338;49.602;8.722;2022-12-18T11:41:26;51.75;;;27.20;;
4650;SDS011;2338;49.602;8.722;2022-12-18T11:44:31;50.90;;;28.38;;
4650;SDS011;2338;49.602;8.722;2022-12-18T11:47:25;54.47;;;28.77;;
4650;SDS011;2338;49.602;8.722;2022-12-18T11:50:17;47.38;;;26.48;;
4650;SDS011;2338;49.602;8.722;2022-12-18T11:53:09;50.00;;;28.48;;
4650;SDS011;2338;49.602;8.722;2022-12-18T11:56:05;43.28;;;24.70;;
4650;SDS011;2338;49.602;8.722;2022-12-18T11:59:13;48.47;;;27.70;;
4650;SDS011;2338;49.602;8.722;2022-12-18T12:02:10;51.40;;;27.25;;
4650;SDS011;2338;49.602;8.722;2022-12-18T12:05:17;47.65;;;28.30;;
4650;SDS011;2338;49.602;8.722;2022-12-18T12:08:11;53.55;;;28.25;;
4650;SDS011;2338;49.602;8.722;2022-12-18T12:11:03;41.97;;;24.40;;
4650;SDS011;2338;49.602;8.722;2022-12-18T12:14:01;48.78;;;26.50;;
4650;SDS011;2338;49.602;8.722;2022-12-18T12:17:01;45.80;;;25.70;;
4650;SDS011;2338;49.602;8.722;2022-12-18T12:19:56;48.90;;;27.25;;
4650;SDS011;2338;49.602;8.722;2022-12-18T12:22:49;54.47;;;26.98;;
4650;SDS011;2338;49.602;8.722;2022-12-18T12:25:41;48.55;;;25.33;;
4650;SDS011;2338;49.602;8.722;2022-12-18T12:28:37;50.92;;;26.75;;
4650;SDS011;2338;49.602;8.722;2022-12-18T12:31:41;49.22;;;27.30;;
4650;SDS011;2338;49.602;8.722;2022-12-18T12:34:37;52.50;;;27.02;;
4650;SDS011;2338;49.602;8.722;2022-12-18T12:37:36;46.65;;;27.48;;
4650;SDS011;2338;49.602;8.722;2022-12-18T12:40:30;46.00;;;25.38;;
4650;SDS011;2338;49.602;8.722;2022-12-18T12:43:21;49.75;;;27.40;;
4650;SDS011;2338;49.602;8.722;2022-12-18T12:46:11;44.97;;;25.90;;
4650;SDS011;2338;49.602;8.722;2022-12-18T12:49:01;49.53;;;23.60;;
4650;SDS011;2338;49.602;8.722;2022-12-18T12:51:51;44.15;;;23.65;;
4650;SDS011;2338;49.602;8.722;2022-12-18T12:54:45;43.47;;;24.35;;
4650;SDS011;2338;49.602;8.722;2022-12-18T12:57:33;47.28;;;24.73;;
4650;SDS011;2338;49.602;8.722;2022-12-18T13:00:22;46.05;;;23.50;;
4650;SDS011;2338;49.602;8.722;2022-12-18T13:03:12;45.88;;;25.27;;
4650;SDS011;2338;49.602;8.722;2022-12-18T13:06:07;50.97;;;26.33;;
4650;SDS011;2338;49.602;8.722;2022-12-18T13:08:58;44.65;;;23.85;;
4650;SDS011;2338;49.602;8.722;2022-12-18T13:11:47;48.65;;;25.45;;
4650;SDS011;2338;49.602;8.722;2022-12-18T13:14:51;50.75;;;26.08;;
4650;SDS011;2338;49.602;8.722;2022-12-18T13:17:36;46.55;;;25.00;;
4650;SDS011;2338;49.602;8.722;2022-12-18T13:20:22;46.33;;;26.90;;
4650;SDS011;2338;49.602;8.722;2022-12-18T13:23:29;54.92;;;28.05;;
4650;SDS011;2338;49.602;8.722;2022-12-18T13:26:29;45.33;;;25.08;;
4650;SDS011;2338;49.602;8.722;2022-12-18T13:32:27;49.72;;;26.98;;
4650;SDS011;2338;49.602;8.722;2022-12-18T13:38:25;50.00;;;27.33;;
4650;SDS011;2338;49.602;8.722;2022-12-18T13:41:23;49.70;;;26.40;;
4650;SDS011;2338;49.602;8.722;2022-12-18T13:44:11;49.33;;;26.33;;
4650;SDS011;2338;49.602;8.722;2022-12-18T13:47:24;51.50;;;27.58;;
4650;SDS011;2338;49.602;8.722;2022-12-18T13:50:22;49.05;;;27.30;;
4650;SDS011;2338;49.602;8.722;2022-12-18T13:53:14;47.45;;;26.80;;
4650;SDS011;2338;49.602;8.722;2022-12-18T13:56:06;52.97;;;26.38;;
4650;SDS011;2338;49.602;8.722;2022-12-18T13:59:11;49.30;;;25.58;;
4650;SDS011;2338;49.602;8.722;2022-12-18T14:02:00;55.75;;;25.67;;
4650;SDS011;2338;49.602;8.722;2022-12-18T14:04:54;47.67;;;25.17;;
4650;SDS011;2338;49.602;8.722;2022-12-18T14:07:40;53.65;;;25.90;;
4650;SDS011;2338;49.602;8.722;2022-12-18T14:10:25;50.55;;;26.45;;
4650;SDS011;2338;49.602;8.722;2022-12-18T14:13:14;50.63;;;26.10;;
4650;SDS011;2338;49.602;8.722;2022-12-18T14:16:04;50.85;;;26.60;;
4650;SDS011;2338;49.602;8.722;2022-12-18T14:18:52;45.50;;;25.35;;
4650;SDS011;2338;49.602;8.722;2022-12-18T14:21:41;50.33;;;25.50;;
4650;SDS011;2338;49.602;8.722;2022-12-18T14:24:31;44.60;;;23.90;;
4650;SDS011;2338;49.602;8.722;2022-12-18T14:27:21;44.40;;;24.55;;
4650;SDS011;2338;49.602;8.722;2022-12-18T14:30:22;50.00;;;27.83;;
4650;SDS011;2338;49.602;8.722;2022-12-18T14:33:13;55.13;;;28.45;;
4650;SDS011;2338;49.602;8.722;2022-12-18T14:36:01;53.15;;;26.83;;
4650;SDS011;2338;49.602;8.722;2022-12-18T14:38:51;47.35;;;24.98;;
4650;SDS011;2338;49.602;8.722;2022-12-18T14:41:38;52.92;;;25.08;;
4650;SDS011;2338;49.602;8.722;2022-12-18T14:44:24;50.47;;;27.38;;
4650;SDS011;2338;49.602;8.722;2022-12-18T14:47:12;47.75;;;24.65;;
4650;SDS011;2338;49.602;8.722;2022-12-18T14:49:59;49.42;;;26.52;;
4650;SDS011;2338;49.602;8.722;2022-12-18T14:52:45;50.72;;;25.58;;
4650;SDS011;2338;49.602;8.722;2022-12-18T14:55:32;56.58;;;28.10;;
4650;SDS011;2338;49.602;8.722;2022-12-18T14:58:17;48.22;;;24.13;;
4650;SDS011;2338;49.602;8.722;2022-12-18T15:01:03;53.78;;;26.75;;
4650;SDS011;2338;49.602;8.722;2022-12-18T15:03:50;46.22;;;26.58;;
4650;SDS011;2338;49.602;8.722;2022-12-18T15:06:36;47.80;;;26.15;;
4650;SDS011;2338;49.602;8.722;2022-12-18T15:09:25;43.35;;;24.10;;
4650;SDS011;2338;49.602;8.722;2022-12-18T15:12:22;50.15;;;25.35;;
4650;SDS011;2338;49.602;8.722;2022-12-18T15:18:31;48.60;;;24.33;;
4650;SDS011;2338;49.602;8.722;2022-12-18T15:21:18;46.95;;;26.75;;
4650;SDS011;2338;49.602;8.722;2022-12-18T15:24:13;54.78;;;25.98;;
4650;SDS011;2338;49.602;8.722;2022-12-18T15:27:02;54.97;;;28.77;;
4650;SDS011;2338;49.602;8.722;2022-12-18T15:30:00;46.65;;;24.83;;
4650;SDS011;2338;49.602;8.722;2022-12-18T15:33:22;51.28;;;24.65;;
4650;SDS011;2338;49.602;8.722;2022-12-18T15:36:10;55.63;;;27.20;;
4650;SDS011;2338;49.602;8.722;2022-12-18T15:38:57;54.75;;;27.70;;
4650;SDS011;2338;49.602;8.722;2022-12-18T15:41:43;49.22;;;26.50;;
4650;SDS011;2338;49.602;8.722;2022-12-18T15:44:49;50.70;;;26.92;;
4650;SDS011;2338;49.602;8.722;2022-12-18T15:47:35;53.55;;;26.73;;
4650;SDS011;2338;49.602;8.722;2022-12-18T15:50:20;52.92;;;24.85;;
4650;SDS011;2338;49.602;8.722;2022-12-18T15:53:07;55.13;;;27.42;;
4650;SDS011;2338;49.602;8.722;2022-12-18T15:55:54;51.10;;;26.83;;
4650;SDS011;2338;49.602;8.722;2022-12-18T15:58:57;53.40;;;25.77;;
4650;SDS011;2338;49.602;8.722;2022-12-18T16:01:43;50.00;;;26.88;;
4650;SDS011;2338;49.602;8.722;2022-12-18T16:04:31;52.65;;;26.33;;
4650;SDS011;2338;49.602;8.722;2022-12-18T16:07:17;48.55;;;25.45;;
4650;SDS011;2338;49.602;8.722;2022-12-18T16:10:03;46.08;;;23.92;;
4650;SDS011;2338;49.602;8.722;2022-12-18T16:12:49;57.53;;;27.38;;
4650;SDS011;2338;49.602;8.722;2022-12-18T16:15:35;54.97;;;28.27;;
4650;SDS011;2338;49.602;8.722;2022-12-18T16:18:21;51.53;;;27.80;;
4650;SDS011;2338;49.602;8.722;2022-12-18T16:21:08;55.72;;;31.83;;
4650;SDS011;2338;49.602;8.722;2022-12-18T16:23:54;52.60;;;27.23;;
4650;SDS011;2338;49.602;8.722;2022-12-18T16:26:40;57.63;;;27.35;;
4650;SDS011;2338;49.602;8.722;2022-12-18T16:29:27;58.90;;;28.55;;
4650;SDS011;2338;49.602;8.722;2022-12-18T16:32:13;45.38;;;26.23;;
4650;SDS011;2338;49.602;8.722;2022-12-18T16:35:00;56.03;;;29.05;;
4650;SDS011;2338;49.602;8.722;2022-12-18T16:37:47;57.05;;;28.45;;
4650;SDS011;2338;49.602;8.722;2022-12-18T16:40:33;52.80;;;26.95;;
4650;SDS011;2338;49.602;8.722;2022-12-18T16:43:38;44.72;;;25.65;;
4650;SDS011;2338;49.602;8.722;2022-12-18T16:46:24;55.80;;;28.00;;
4650;SDS011;2338;49.602;8.722;2022-12-18T16:49:10;54.00;;;29.23;;
4650;SDS011;2338;49.602;8.722;2022-12-18T16:51:56;66.45;;;30.45;;
4650;SDS011;2338;49.602;8.722;2022-12-18T16:54:48;49.63;;;28.52;;
4650;SDS011;2338;49.602;8.722;2022-12-18T16:57:34;57.53;;;30.77;;
4650;SDS011;2338;49.602;8.722;2022-12-18T17:00:20;48.42;;;25.83;;
4650;SDS011;2338;49.602;8.722;2022-12-18T17:03:05;50.30;;;26.45;;
4650;SDS011;2338;49.602;8.722;2022-12-18T17:05:51;55.95;;;28.60;;
4650;SDS011;2338;49.602;8.722;2022-12-18T17:08:36;53.22;;;26.90;;
4650;SDS011;2338;49.602;8.722;2022-12-18T17:11:24;52.70;;;26.35;;
4650;SDS011;2338;49.602;8.722;2022-12-18T17:14:12;48.97;;;25.80;;